sensor_id;sensor_type;location;lat;lon;timestamp;P1;durP1;ratioP1;P2;durP2;ratioP2
3975;SDS011;2002;48.812;9.180;2023-05-17T00:01:47;2.10;;;0.80;;
3975;SDS011;2002;48.812;9.180;2023-05-17T00:04:12;1.40;;;1.20;;
3975;SDS011;2002;48.812;9.180;2023-05-17T00:06:38;1.50;;;1.10;;
3975;SDS011;2002;48.812;9.180;2023-05-17T00:09:03;2.00;;;1.10;;
3975;SDS011;2002;48.812;9.180;2023-05-17T00:11:29;1.43;;;1.33;;
3975;SDS011;2002;48.812;9.180;2023-05-17T00:13:55;1.33;;;0.90;;
3975;SDS011;2002;48.812;9.180;2023-05-17T00:16:21;2.40;;;1.17;;
3975;SDS011;2002;48.812;9.180;2023-05-17T00:18:46;1.73;;;0.90;;
3975;SDS011;2002;48.812;9.180;2023-05-17T00:21:12;1.10;;;0.83;;
3975;SDS011;2002;48.812;9.180;2023-05-17T00:23:37;2.10;;;1.27;;
3975;SDS011;2002;48.812;9.180;2023-05-17T00:26:03;1.77;;;1.17;;
3975;SDS011;2002;48.812;9.180;2023-05-17T00:28:28;1.57;;;1.13;;
3975;SDS011;2002;48.812;9.180;2023-05-17T00:30:54;1.60;;;1.10;;
3975;SDS011;2002;48.812;9.180;2023-05-17T00:33:20;2.60;;;1.67;;
3975;SDS011;2002;48.812;9.180;2023-05-17T00:35:45;1.03;;;0.90;;
3975;SDS011;2002;48.812;9.180;2023-05-17T00:38:11;1.53;;;1.00;;
3975;SDS011;2002;48.812;9.180;2023-05-17T00:40:36;1.27;;;0.70;;
3975;SDS011;2002;48.812;9.180;2023-05-17T00:43:02;1.60;;;1.47;;
3975;SDS011;2002;48.812;9.180;2023-05-17T00:45:27;1.00;;;0.90;;
3975;SDS011;2002;48.812;9.180;2023-05-17T00:47:53;1.87;;;1.00;;
3975;SDS011;2002;48.812;9.180;2023-05-17T00:50:19;1.07;;;0.97;;
3975;SDS011;2002;48.812;9.180;2023-05-17T00:52:45;2.10;;;1.50;;
3975;SDS011;2002;48.812;9.180;2023-05-17T00:55:10;5.40;;;0.90;;
3975;SDS011;2002;48.812;9.180;2023-05-17T00:57:36;1.80;;;1.17;;
3975;SDS011;2002;48.812;9.180;2023-05-17T01:00:02;1.37;;;1.20;;
3975;SDS011;2002;48.812;9.180;2023-05-17T01:02:28;2.23;;;1.47;;
3975;SDS011;2002;48.812;9.180;2023-05-17T01:04:53;3.57;;;1.23;;
3975;SDS011;2002;48.812;9.180;2023-05-17T01:07:19;1.73;;;1.43;;
3975;SDS011;2002;48.812;9.180;2023-05-17T01:09:44;2.33;;;1.13;;
3975;SDS011;2002;48.812;9.180;2023-05-17T01:20:49;1.20;;;1.03;;
3975;SDS011;2002;48.812;9.180;2023-05-17T01:26:17;1.83;;;1.30;;
3975;SDS011;2002;48.812;9.180;2023-05-17T01:29:02;3.27;;;1.33;;
3975;SDS011;2002;48.812;9.180;2023-05-17T01:31:29;1.23;;;0.90;;
3975;SDS011;2002;48.812;9.180;2023-05-17T01:33:55;1.20;;;1.10;;
3975;SDS011;2002;48.812;9.180;2023-05-17T01:36:22;1.60;;;1.00;;
3975;SDS011;2002;48.812;9.180;2023-05-17T01:38:50;1.57;;;1.00;;
3975;SDS011;2002;48.812;9.180;2023-05-17T01:41:18;1.83;;;1.03;;
3975;SDS011;2002;48.812;9.180;2023-05-17T01:46:55;3.87;;;1.17;;
3975;SDS011;2002;48.812;9.180;2023-05-17T01:49:30;0.93;;;0.90;;
3975;SDS011;2002;48.812;9.180;2023-05-17T01:54:37;0.93;;;0.70;;
3975;SDS011;2002;48.812;9.180;2023-05-17T01:57:09;1.43;;;1.00;;
3975;SDS011;2002;48.812;9.180;2023-05-17T01:59:37;1.17;;;0.90;;
3975;SDS011;2002;48.812;9.180;2023-05-17T02:02:03;1.63;;;1.00;;
3975;SDS011;2002;48.812;9.180;2023-05-17T02:04:34;3.67;;;0.97;;
3975;SDS011;2002;48.812;9.180;2023-05-17T02:07:00;1.23;;;1.13;;
3975;SDS011;2002;48.812;9.180;2023-05-17T02:09:26;1.27;;;1.00;;
3975;SDS011;2002;48.812;9.180;2023-05-17T02:11:52;2.83;;;1.70;;
3975;SDS011;2002;48.812;9.180;2023-05-17T02:14:17;1.57;;;1.07;;
3975;SDS011;2002;48.812;9.180;2023-05-17T02:16:43;3.20;;;1.20;;
3975;SDS011;2002;48.812;9.180;2023-05-17T02:19:09;2.67;;;1.13;;
3975;SDS011;2002;48.812;9.180;2023-05-17T02:21:36;1.93;;;1.30;;
3975;SDS011;2002;48.812;9.180;2023-05-17T02:24:02;5.43;;;1.20;;
3975;SDS011;2002;48.812;9.180;2023-05-17T02:26:28;1.47;;;1.27;;
3975;SDS011;2002;48.812;9.180;2023-05-17T02:28:55;1.03;;;0.93;;
3975;SDS011;2002;48.812;9.180;2023-05-17T02:31:21;1.90;;;1.07;;
3975;SDS011;2002;48.812;9.180;2023-05-17T02:33:48;1.10;;;0.90;;
3975;SDS011;2002;48.812;9.180;2023-05-17T02:36:14;1.73;;;0.90;;
3975;SDS011;2002;48.812;9.180;2023-05-17T02:38:40;1.10;;;0.80;;
3975;SDS011;2002;48.812;9.180;2023-05-17T02:41:05;1.23;;;1.13;;
3975;SDS011;2002;48.812;9.180;2023-05-17T02:43:31;1.57;;;1.10;;
3975;SDS011;2002;48.812;9.180;2023-05-17T02:45:56;1.67;;;1.20;;
3975;SDS011;2002;48.812;9.180;2023-05-17T02:48:22;1.40;;;1.00;;
3975;SDS011;2002;48.812;9.180;2023-05-17T02:50:47;1.20;;;0.90;;
3975;SDS011;2002;48.812;9.180;2023-05-17T02:53:13;3.03;;;0.90;;
3975;SDS011;2002;48.812;9.180;2023-05-17T02:55:38;1.93;;;1.17;;
3975;SDS011;2002;48.812;9.180;2023-05-17T02:58:04;2.30;;;0.97;;
3975;SDS011;2002;48.812;9.180;2023-05-17T03:00:29;1.97;;;1.13;;
3975;SDS011;2002;48.812;9.180;2023-05-17T03:02:55;0.90;;;0.80;;
3975;SDS011;2002;48.812;9.180;2023-05-17T03:05:20;1.00;;;0.90;;
3975;SDS011;2002;48.812;9.180;2023-05-17T03:07:46;1.47;;;1.00;;
3975;SDS011;2002;48.812;9.180;2023-05-17T03:10:11;1.60;;;1.10;;
3975;SDS011;2002;48.812;9.180;2023-05-17T03:12:37;1.10;;;0.90;;
3975;SDS011;2002;48.812;9.180;2023-05-17T03:15:03;3.90;;;0.90;;
3975;SDS011;2002;48.812;9.180;2023-05-17T03:17:29;2.20;;;0.90;;
3975;SDS011;2002;48.812;9.180;2023-05-17T03:19:54;0.90;;;0.80;;
3975;SDS011;2002;48.812;9.180;2023-05-17T03:22:20;1.87;;;0.90;;
3975;SDS011;2002;48.812;9.180;2023-05-17T03:24:46;1.50;;;1.03;;
3975;SDS011;2002;48.812;9.180;2023-05-17T03:27:11;0.80;;;0.63;;
3975;SDS011;2002;48.812;9.180;2023-05-17T03:29:37;1.00;;;0.87;;
3975;SDS011;2002;48.812;9.180;2023-05-17T03:32:02;1.20;;;1.10;;
3975;SDS011;2002;48.812;9.180;2023-05-17T03:34:28;2.00;;;1.40;;
3975;SDS011;2002;48.812;9.180;2023-05-17T03:36:54;2.30;;;1.43;;
3975;SDS011;2002;48.812;9.180;2023-05-17T03:39:19;1.83;;;1.17;;
3975;SDS011;2002;48.812;9.180;2023-05-17T03:41:45;1.90;;;1.30;;
3975;SDS011;2002;48.812;9.180;2023-05-17T03:44:11;1.93;;;1.20;;
3975;SDS011;2002;48.812;9.180;2023-05-17T03:46:37;1.90;;;1.30;;
3975;SDS011;2002;48.812;9.180;2023-05-17T03:49:02;1.70;;;1.53;;
3975;SDS011;2002;48.812;9.180;2023-05-17T03:51:28;2.33;;;1.97;;
3975;SDS011;2002;48.812;9.180;2023-05-17T03:53:58;2.00;;;1.27;;
3975;SDS011;2002;48.812;9.180;2023-05-17T03:56:24;2.00;;;1.47;;
3975;SDS011;2002;48.812;9.180;2023-05-17T03:58:50;2.57;;;1.40;;
3975;SDS011;2002;48.812;9.180;2023-05-17T04:01:16;1.47;;;1.10;;
3975;SDS011;2002;48.812;9.180;2023-05-17T04:03:44;2.87;;;1.57;;
3975;SDS011;2002;48.812;9.180;2023-05-17T04:06:10;3.50;;;1.50;;
3975;SDS011;2002;48.812;9.180;2023-05-17T04:08:37;2.83;;;1.57;;
3975;SDS011;2002;48.812;9.180;2023-05-17T04:11:02;4.00;;;1.40;;
3975;SDS011;2002;48.812;9.180;2023-05-17T04:13:34;2.60;;;1.23;;
3975;SDS011;2002;48.812;9.180;2023-05-17T04:16:01;1.80;;;1.17;;
3975;SDS011;2002;48.812;9.180;2023-05-17T04:18:27;2.70;;;1.37;;
3975;SDS011;2002;48.812;9.180;2023-05-17T04:20:56;2.20;;;1.20;;
3975;SDS011;2002;48.812;9.180;2023-05-17T04:23:21;2.20;;;1.37;;
3975;SDS011;2002;48.812;9.180;2023-05-17T04:25:47;2.10;;;1.37;;
3975;SDS011;2002;48.812;9.180;2023-05-17T04:28:13;1.90;;;1.40;;
3975;SDS011;2002;48.812;9.180;2023-05-17T04:30:42;2.87;;;1.20;;
3975;SDS011;2002;48.812;9.180;2023-05-17T04:33:07;2.40;;;1.27;;
3975;SDS011;2002;48.812;9.180;2023-05-17T04:35:33;1.83;;;1.10;;
3975;SDS011;2002;48.812;9.180;2023-05-17T04:38:00;1.90;;;1.30;;
3975;SDS011;2002;48.812;9.180;2023-05-17T04:40:25;1.90;;;1.20;;
3975;SDS011;2002;48.812;9.180;2023-05-17T04:42:51;1.63;;;0.90;;
3975;SDS011;2002;48.812;9.180;2023-05-17T04:45:16;2.10;;;1.13;;
3975;SDS011;2002;48.812;9.180;2023-05-17T04:47:42;2.33;;;1.33;;
3975;SDS011;2002;48.812;9.180;2023-05-17T04:50:07;1.73;;;1.13;;
3975;SDS011;2002;48.812;9.180;2023-05-17T04:52:33;2.10;;;1.00;;
3975;SDS011;2002;48.812;9.180;2023-05-17T04:54:59;2.80;;;1.70;;
3975;SDS011;2002;48.812;9.180;2023-05-17T04:57:24;1.60;;;1.30;;
3975;SDS011;2002;48.812;9.180;2023-05-17T04:59:50;1.93;;;1.20;;
3975;SDS011;2002;48.812;9.180;2023-05-17T05:02:15;1.80;;;1.40;;
3975;SDS011;2002;48.812;9.180;2023-05-17T05:04:41;1.87;;;1.60;;
3975;SDS011;2002;48.812;9.180;2023-05-17T05:07:06;1.53;;;1.17;;
3975;SDS011;2002;48.812;9.180;2023-05-17T05:09:32;2.13;;;1.30;;
3975;SDS011;2002;48.812;9.180;2023-05-17T05:11:58;1.60;;;1.20;;
3975;SDS011;2002;48.812;9.180;2023-05-17T05:14:23;1.37;;;1.27;;
3975;SDS011;2002;48.812;9.180;2023-05-17T05:16:49;1.63;;;1.10;;
3975;SDS011;2002;48.812;9.180;2023-05-17T05:19:14;1.20;;;1.00;;
3975;SDS011;2002;48.812;9.180;2023-05-17T05:21:40;1.50;;;1.10;;
3975;SDS011;2002;48.812;9.180;2023-05-17T05:24:09;2.97;;;1.30;;
3975;SDS011;2002;48.812;9.180;2023-05-17T05:26:35;2.40;;;1.20;;
3975;SDS011;2002;48.812;9.180;2023-05-17T05:29:00;1.30;;;1.20;;
3975;SDS011;2002;48.812;9.180;2023-05-17T05:31:26;1.30;;;1.10;;
3975;SDS011;2002;48.812;9.180;2023-05-17T05:33:52;1.60;;;1.13;;
3975;SDS011;2002;48.812;9.180;2023-05-17T05:36:17;1.77;;;1.23;;
3975;SDS011;2002;48.812;9.180;2023-05-17T05:38:43;1.80;;;1.23;;
3975;SDS011;2002;48.812;9.180;2023-05-17T05:41:08;1.37;;;0.93;;
3975;SDS011;2002;48.812;9.180;2023-05-17T05:43:34;3.13;;;1.30;;
3975;SDS011;2002;48.812;9.180;2023-05-17T05:46:01;1.50;;;1.10;;
3975;SDS011;2002;48.812;9.180;2023-05-17T05:48:27;1.70;;;0.80;;
3975;SDS011;2002;48.812;9.180;2023-05-17T05:50:52;1.47;;;1.07;;
3975;SDS011;2002;48.812;9.180;2023-05-17T05:53:18;2.73;;;1.17;;
3975;SDS011;2002;48.812;9.180;2023-05-17T05:55:43;1.50;;;0.90;;
3975;SDS011;2002;48.812;9.180;2023-05-17T05:58:09;2.47;;;1.20;;
3975;SDS011;2002;48.812;9.180;2023-05-17T06:00:34;2.00;;;1.27;;
3975;SDS011;2002;48.812;9.180;2023-05-17T06:03:01;2.30;;;1.37;;
3975;SDS011;2002;48.812;9.180;2023-05-17T06:05:26;2.40;;;1.03;;
3975;SDS011;2002;48.812;9.180;2023-05-17T06:07:52;1.77;;;1.10;;
3975;SDS011;2002;48.812;9.180;2023-05-17T06:10:17;1.23;;;1.00;;
3975;SDS011;2002;48.812;9.180;2023-05-17T06:12:43;3.00;;;1.40;;
3975;SDS011;2002;48.812;9.180;2023-05-17T06:15:09;1.33;;;1.17;;
3975;SDS011;2002;48.812;9.180;2023-05-17T06:17:35;2.57;;;2.37;;
3975;SDS011;2002;48.812;9.180;2023-05-17T06:20:00;1.20;;;0.93;;
3975;SDS011;2002;48.812;9.180;2023-05-17T06:22:26;1.20;;;1.10;;
3975;SDS011;2002;48.812;9.180;2023-05-17T06:24:51;3.73;;;1.00;;
3975;SDS011;2002;48.812;9.180;2023-05-17T06:27:17;1.27;;;1.17;;
3975;SDS011;2002;48.812;9.180;2023-05-17T06:29:42;1.20;;;1.10;;
3975;SDS011;2002;48.812;9.180;2023-05-17T06:32:08;1.90;;;1.43;;
3975;SDS011;2002;48.812;9.180;2023-05-17T06:34:33;1.60;;;1.40;;
3975;SDS011;2002;48.812;9.180;2023-05-17T06:36:59;1.57;;;1.00;;
3975;SDS011;2002;48.812;9.180;2023-05-17T06:39:24;1.67;;;1.30;;
3975;SDS011;2002;48.812;9.180;2023-05-17T06:41:50;2.70;;;1.20;;
3975;SDS011;2002;48.812;9.180;2023-05-17T06:44:16;1.63;;;0.80;;
3975;SDS011;2002;48.812;9.180;2023-05-17T06:46:41;1.77;;;1.67;;
3975;SDS011;2002;48.812;9.180;2023-05-17T06:49:07;3.77;;;1.10;;
3975;SDS011;2002;48.812;9.180;2023-05-17T06:51:32;4.10;;;1.37;;
3975;SDS011;2002;48.812;9.180;2023-05-17T06:53:58;1.73;;;1.57;;
3975;SDS011;2002;48.812;9.180;2023-05-17T06:56:23;2.63;;;1.27;;
3975;SDS011;2002;48.812;9.180;2023-05-17T06:58:49;2.10;;;1.50;;
3975;SDS011;2002;48.812;9.180;2023-05-17T07:01:14;1.90;;;1.33;;
3975;SDS011;2002;48.812;9.180;2023-05-17T07:03:40;1.93;;;1.23;;
3975;SDS011;2002;48.812;9.180;2023-05-17T07:06:06;4.10;;;1.70;;
3975;SDS011;2002;48.812;9.180;2023-05-17T07:08:31;1.63;;;1.10;;
3975;SDS011;2002;48.812;9.180;2023-05-17T07:10:57;3.27;;;1.20;;
3975;SDS011;2002;48.812;9.180;2023-05-17T07:13:23;1.97;;;1.10;;
3975;SDS011;2002;48.812;9.180;2023-05-17T07:15:48;2.40;;;1.10;;
3975;SDS011;2002;48.812;9.180;2023-05-17T07:18:14;1.30;;;1.20;;
3975;SDS011;2002;48.812;9.180;2023-05-17T07:20:40;3.13;;;1.43;;
3975;SDS011;2002;48.812;9.180;2023-05-17T07:23:06;3.43;;;1.20;;
3975;SDS011;2002;48.812;9.180;2023-05-17T07:25:31;1.60;;;1.50;;
3975;SDS011;2002;48.812;9.180;2023-05-17T07:27:57;1.23;;;1.13;;
3975;SDS011;2002;48.812;9.180;2023-05-17T07:30:22;1.30;;;1.00;;
3975;SDS011;2002;48.812;9.180;2023-05-17T07:32:48;2.07;;;1.23;;
3975;SDS011;2002;48.812;9.180;2023-05-17T07:35:13;7.70;;;1.83;;
3975;SDS011;2002;48.812;9.180;2023-05-17T07:37:39;2.37;;;1.30;;
3975;SDS011;2002;48.812;9.180;2023-05-17T07:40:05;1.40;;;1.20;;
3975;SDS011;2002;48.812;9.180;2023-05-17T07:42:31;2.57;;;1.57;;
3975;SDS011;2002;48.812;9.180;2023-05-17T07:44:57;5.80;;;2.27;;
3975;SDS011;2002;48.812;9.180;2023-05-17T07:47:23;1.83;;;1.60;;
3975;SDS011;2002;48.812;9.180;2023-05-17T07:49:48;2.43;;;1.50;;
3975;SDS011;2002;48.812;9.180;2023-05-17T07:52:14;2.10;;;1.30;;
3975;SDS011;2002;48.812;9.180;2023-05-17T07:54:40;1.93;;;1.53;;
3975;SDS011;2002;48.812;9.180;2023-05-17T07:57:05;5.00;;;1.70;;
3975;SDS011;2002;48.812;9.180;2023-05-17T07:59:31;1.70;;;1.53;;
3975;SDS011;2002;48.812;9.180;2023-05-17T08:01:57;2.57;;;1.57;;
3975;SDS011;2002;48.812;9.180;2023-05-17T08:04:22;2.30;;;1.37;;
3975;SDS011;2002;48.812;9.180;2023-05-17T08:06:48;1.20;;;1.07;;
3975;SDS011;2002;48.812;9.180;2023-05-17T08:09:14;2.10;;;1.30;;
3975;SDS011;2002;48.812;9.180;2023-05-17T08:11:40;1.77;;;1.53;;
3975;SDS011;2002;48.812;9.180;2023-05-17T08:14:16;2.57;;;1.40;;
3975;SDS011;2002;48.812;9.180;2023-05-17T08:16:43;2.07;;;1.50;;
3975;SDS011;2002;48.812;9.180;2023-05-17T08:19:10;2.60;;;1.60;;
3975;SDS011;2002;48.812;9.180;2023-05-17T08:21:37;2.43;;;1.10;;
3975;SDS011;2002;48.812;9.180;2023-05-17T08:24:03;2.33;;;1.20;;
3975;SDS011;2002;48.812;9.180;2023-05-17T08:26:29;1.13;;;1.03;;
3975;SDS011;2002;48.812;9.180;2023-05-17T08:28:55;2.90;;;1.63;;
3975;SDS011;2002;48.812;9.180;2023-05-17T08:31:20;5.50;;;1.30;;
3975;SDS011;2002;48.812;9.180;2023-05-17T08:33:46;1.80;;;1.33;;
3975;SDS011;2002;48.812;9.180;2023-05-17T08:36:11;2.73;;;1.70;;
3975;SDS011;2002;48.812;9.180;2023-05-17T08:38:37;2.30;;;1.37;;
3975;SDS011;2002;48.812;9.180;2023-05-17T08:41:02;2.30;;;1.30;;
3975;SDS011;2002;48.812;9.180;2023-05-17T08:43:28;1.70;;;1.40;;
3975;SDS011;2002;48.812;9.180;2023-05-17T08:45:55;2.27;;;1.10;;
3975;SDS011;2002;48.812;9.180;2023-05-17T08:48:21;2.93;;;1.50;;
3975;SDS011;2002;48.812;9.180;2023-05-17T08:50:50;4.27;;;1.80;;
3975;SDS011;2002;48.812;9.180;2023-05-17T08:53:18;1.87;;;1.63;;
3975;SDS011;2002;48.812;9.180;2023-05-17T08:55:44;2.10;;;1.60;;
3975;SDS011;2002;48.812;9.180;2023-05-17T08:58:12;2.53;;;1.10;;
3975;SDS011;2002;48.812;9.180;2023-05-17T09:00:41;2.13;;;1.33;;
3975;SDS011;2002;48.812;9.180;2023-05-17T09:03:08;1.60;;;1.30;;
3975;SDS011;2002;48.812;9.180;2023-05-17T09:05:35;2.00;;;1.57;;
3975;SDS011;2002;48.812;9.180;2023-05-17T09:08:00;3.50;;;1.93;;
3975;SDS011;2002;48.812;9.180;2023-05-17T09:10:26;3.93;;;2.30;;
3975;SDS011;2002;48.812;9.180;2023-05-17T09:12:52;1.53;;;1.40;;
3975;SDS011;2002;48.812;9.180;2023-05-17T09:15:19;2.90;;;1.90;;
3975;SDS011;2002;48.812;9.180;2023-05-17T09:17:51;3.23;;;1.60;;
3975;SDS011;2002;48.812;9.180;2023-05-17T09:20:24;1.83;;;1.50;;
3975;SDS011;2002;48.812;9.180;2023-05-17T09:23:02;3.50;;;1.87;;
3975;SDS011;2002;48.812;9.180;2023-05-17T09:25:28;2.10;;;1.90;;
3975;SDS011;2002;48.812;9.180;2023-05-17T09:27:57;2.33;;;1.67;;
3975;SDS011;2002;48.812;9.180;2023-05-17T09:30:25;2.50;;;2.30;;
3975;SDS011;2002;48.812;9.180;2023-05-17T09:32:52;2.17;;;1.77;;
3975;SDS011;2002;48.812;9.180;2023-05-17T09:35:18;2.07;;;1.50;;
3975;SDS011;2002;48.812;9.180;2023-05-17T09:37:43;5.60;;;2.03;;
3975;SDS011;2002;48.812;9.180;2023-05-17T09:40:20;2.13;;;1.70;;
3975;SDS011;2002;48.812;9.180;2023-05-17T09:42:49;2.20;;;1.40;;
3975;SDS011;2002;48.812;9.180;2023-05-17T09:45:20;1.83;;;1.60;;
3975;SDS011;2002;48.812;9.180;2023-05-17T09:47:47;1.67;;;1.37;;
3975;SDS011;2002;48.812;9.180;2023-05-17T09:50:16;2.10;;;1.90;;
3975;SDS011;2002;48.812;9.180;2023-05-17T09:52:45;2.90;;;1.70;;
3975;SDS011;2002;48.812;9.180;2023-05-17T09:55:11;1.90;;;1.53;;
3975;SDS011;2002;48.812;9.180;2023-05-17T09:57:38;2.37;;;1.73;;
3975;SDS011;2002;48.812;9.180;2023-05-17T10:00:05;6.37;;;1.60;;
3975;SDS011;2002;48.812;9.180;2023-05-17T10:02:36;6.00;;;2.23;;
3975;SDS011;2002;48.812;9.180;2023-05-17T10:05:03;2.90;;;1.90;;
3975;SDS011;2002;48.812;9.180;2023-05-17T10:07:32;4.70;;;2.20;;
3975;SDS011;2002;48.812;9.180;2023-05-17T10:10:00;3.60;;;2.10;;
3975;SDS011;2002;48.812;9.180;2023-05-17T10:12:27;3.47;;;2.00;;
3975;SDS011;2002;48.812;9.180;2023-05-17T10:14:54;4.37;;;2.63;;
3975;SDS011;2002;48.812;9.180;2023-05-17T10:17:20;4.20;;;2.30;;
3975;SDS011;2002;48.812;9.180;2023-05-17T10:19:46;3.73;;;2.00;;
3975;SDS011;2002;48.812;9.180;2023-05-17T10:22:13;1.93;;;1.60;;
3975;SDS011;2002;48.812;9.180;2023-05-17T10:24:41;2.70;;;1.83;;
3975;SDS011;2002;48.812;9.180;2023-05-17T10:27:07;2.50;;;1.70;;
3975;SDS011;2002;48.812;9.180;2023-05-17T10:29:33;2.87;;;1.87;;
3975;SDS011;2002;48.812;9.180;2023-05-17T10:32:02;4.30;;;2.00;;
3975;SDS011;2002;48.812;9.180;2023-05-17T10:34:33;2.60;;;2.30;;
3975;SDS011;2002;48.812;9.180;2023-05-17T10:37:00;2.60;;;2.40;;
3975;SDS011;2002;48.812;9.180;2023-05-17T10:39:27;2.30;;;1.40;;
3975;SDS011;2002;48.812;9.180;2023-05-17T10:41:53;3.37;;;1.97;;
3975;SDS011;2002;48.812;9.180;2023-05-17T10:44:21;2.63;;;2.00;;
3975;SDS011;2002;48.812;9.180;2023-05-17T10:46:51;2.90;;;2.20;;
3975;SDS011;2002;48.812;9.180;2023-05-17T10:49:18;2.27;;;2.00;;
3975;SDS011;2002;48.812;9.180;2023-05-17T10:51:44;2.80;;;1.93;;
3975;SDS011;2002;48.812;9.180;2023-05-17T10:54:11;4.47;;;1.90;;
3975;SDS011;2002;48.812;9.180;2023-05-17T10:56:39;3.70;;;1.70;;
3975;SDS011;2002;48.812;9.180;2023-05-17T10:59:13;2.40;;;1.87;;
3975;SDS011;2002;48.812;9.180;2023-05-17T11:04:25;2.57;;;2.30;;
3975;SDS011;2002;48.812;9.180;2023-05-17T11:06:52;2.50;;;1.87;;
3975;SDS011;2002;48.812;9.180;2023-05-17T11:09:38;2.47;;;1.63;;
3975;SDS011;2002;48.812;9.180;2023-05-17T11:12:12;2.27;;;1.70;;
3975;SDS011;2002;48.812;9.180;2023-05-17T11:17:20;2.30;;;2.10;;
3975;SDS011;2002;48.812;9.180;2023-05-17T11:19:48;2.73;;;1.77;;
3975;SDS011;2002;48.812;9.180;2023-05-17T11:22:26;4.10;;;2.00;;
3975;SDS011;2002;48.812;9.180;2023-05-17T11:24:53;3.10;;;2.30;;
3975;SDS011;2002;48.812;9.180;2023-05-17T11:27:21;6.43;;;2.60;;
3975;SDS011;2002;48.812;9.180;2023-05-17T11:29:54;2.67;;;2.47;;
3975;SDS011;2002;48.812;9.180;2023-05-17T11:32:27;3.03;;;2.00;;
3975;SDS011;2002;48.812;9.180;2023-05-17T11:34:53;2.37;;;1.90;;
3975;SDS011;2002;48.812;9.180;2023-05-17T11:37:25;3.83;;;2.20;;
3975;SDS011;2002;48.812;9.180;2023-05-17T11:40:05;3.20;;;1.70;;
3975;SDS011;2002;48.812;9.180;2023-05-17T11:42:35;4.03;;;2.10;;
3975;SDS011;2002;48.812;9.180;2023-05-17T11:45:02;4.00;;;1.93;;
3975;SDS011;2002;48.812;9.180;2023-05-17T11:47:28;2.30;;;2.10;;
3975;SDS011;2002;48.812;9.180;2023-05-17T11:49:54;4.07;;;2.37;;
3975;SDS011;2002;48.812;9.180;2023-05-17T11:52:24;4.07;;;2.90;;
3975;SDS011;2002;48.812;9.180;2023-05-17T11:54:49;2.27;;;1.70;;
3975;SDS011;2002;48.812;9.180;2023-05-17T11:57:16;4.30;;;2.60;;
3975;SDS011;2002;48.812;9.180;2023-05-17T11:59:44;3.37;;;2.13;;
3975;SDS011;2002;48.812;9.180;2023-05-17T12:02:09;2.80;;;2.30;;
3975;SDS011;2002;48.812;9.180;2023-05-17T12:04:49;3.83;;;2.10;;
3975;SDS011;2002;48.812;9.180;2023-05-17T12:07:15;3.13;;;2.47;;
3975;SDS011;2002;48.812;9.180;2023-05-17T12:09:43;4.87;;;2.20;;
3975;SDS011;2002;48.812;9.180;2023-05-17T12:12:09;3.03;;;2.10;;
3975;SDS011;2002;48.812;9.180;2023-05-17T12:14:35;4.40;;;2.10;;
3975;SDS011;2002;48.812;9.180;2023-05-17T12:17:02;4.10;;;2.10;;
3975;SDS011;2002;48.812;9.180;2023-05-17T12:19:31;4.10;;;2.50;;
3975;SDS011;2002;48.812;9.180;2023-05-17T12:22:10;2.67;;;1.87;;
3975;SDS011;2002;48.812;9.180;2023-05-17T12:24:37;4.43;;;2.23;;
3975;SDS011;2002;48.812;9.180;2023-05-17T12:27:03;2.97;;;1.93;;
3975;SDS011;2002;48.812;9.180;2023-05-17T12:29:29;6.00;;;2.63;;
3975;SDS011;2002;48.812;9.180;2023-05-17T12:31:55;4.27;;;1.90;;
3975;SDS011;2002;48.812;9.180;2023-05-17T12:34:22;4.30;;;2.20;;
3975;SDS011;2002;48.812;9.180;2023-05-17T12:36:47;4.17;;;2.40;;
3975;SDS011;2002;48.812;9.180;2023-05-17T12:39:13;3.20;;;1.90;;
3975;SDS011;2002;48.812;9.180;2023-05-17T12:41:39;3.67;;;2.10;;
3975;SDS011;2002;48.812;9.180;2023-05-17T12:44:06;3.97;;;2.50;;
3975;SDS011;2002;48.812;9.180;2023-05-17T12:46:32;2.37;;;1.90;;
3975;SDS011;2002;48.812;9.180;2023-05-17T12:49:05;2.60;;;2.00;;
3975;SDS011;2002;48.812;9.180;2023-05-17T12:51:45;4.30;;;2.47;;
3975;SDS011;2002;48.812;9.180;2023-05-17T12:54:11;5.00;;;3.23;;
3975;SDS011;2002;48.812;9.180;2023-05-17T12:56:53;2.73;;;2.20;;
3975;SDS011;2002;48.812;9.180;2023-05-17T12:59:20;5.10;;;2.07;;
3975;SDS011;2002;48.812;9.180;2023-05-17T13:01:49;5.50;;;2.07;;
3975;SDS011;2002;48.812;9.180;2023-05-17T13:04:17;2.43;;;2.23;;
3975;SDS011;2002;48.812;9.180;2023-05-17T13:09:12;2.60;;;2.40;;
3975;SDS011;2002;48.812;9.180;2023-05-17T13:11:39;2.10;;;1.90;;
3975;SDS011;2002;48.812;9.180;2023-05-17T13:14:31;3.27;;;2.17;;
3975;SDS011;2002;48.812;9.180;2023-05-17T13:17:07;2.60;;;2.07;;
3975;SDS011;2002;48.812;9.180;2023-05-17T13:19:34;3.53;;;2.13;;
3975;SDS011;2002;48.812;9.180;2023-05-17T13:22:01;2.60;;;2.13;;
3975;SDS011;2002;48.812;9.180;2023-05-17T13:24:29;2.70;;;1.97;;
3975;SDS011;2002;48.812;9.180;2023-05-17T13:26:55;4.50;;;2.17;;
3975;SDS011;2002;48.812;9.180;2023-05-17T13:29:21;3.27;;;1.97;;
3975;SDS011;2002;48.812;9.180;2023-05-17T13:31:47;7.53;;;2.80;;
3975;SDS011;2002;48.812;9.180;2023-05-17T13:34:12;2.70;;;2.03;;
3975;SDS011;2002;48.812;9.180;2023-05-17T13:36:38;4.40;;;2.00;;
3975;SDS011;2002;48.812;9.180;2023-05-17T13:39:03;2.73;;;2.07;;
3975;SDS011;2002;48.812;9.180;2023-05-17T13:41:29;3.50;;;2.47;;
3975;SDS011;2002;48.812;9.180;2023-05-17T13:43:55;15.10;;;3.40;;
3975;SDS011;2002;48.812;9.180;2023-05-17T13:46:21;6.83;;;2.90;;
3975;SDS011;2002;48.812;9.180;2023-05-17T13:48:47;4.50;;;2.80;;
3975;SDS011;2002;48.812;9.180;2023-05-17T13:51:12;4.40;;;2.20;;
3975;SDS011;2002;48.812;9.180;2023-05-17T13:53:38;4.17;;;2.90;;
3975;SDS011;2002;48.812;9.180;2023-05-17T13:56:05;4.13;;;3.20;;
3975;SDS011;2002;48.812;9.180;2023-05-17T13:58:31;3.80;;;2.53;;
3975;SDS011;2002;48.812;9.180;2023-05-17T14:00:57;2.43;;;1.83;;
3975;SDS011;2002;48.812;9.180;2023-05-17T14:03:23;4.13;;;2.83;;
3975;SDS011;2002;48.812;9.180;2023-05-17T14:05:49;6.80;;;2.77;;
3975;SDS011;2002;48.812;9.180;2023-05-17T14:08:16;3.90;;;2.43;;
3975;SDS011;2002;48.812;9.180;2023-05-17T14:10:42;3.57;;;2.40;;
3975;SDS011;2002;48.812;9.180;2023-05-17T14:13:08;5.50;;;2.30;;
3975;SDS011;2002;48.812;9.180;2023-05-17T14:15:35;3.80;;;2.03;;
3975;SDS011;2002;48.812;9.180;2023-05-17T14:18:05;2.97;;;2.43;;
3975;SDS011;2002;48.812;9.180;2023-05-17T14:20:31;5.50;;;2.53;;
3975;SDS011;2002;48.812;9.180;2023-05-17T14:22:58;4.37;;;2.20;;
3975;SDS011;2002;48.812;9.180;2023-05-17T14:25:23;4.20;;;2.20;;
3975;SDS011;2002;48.812;9.180;2023-05-17T14:27:49;3.40;;;2.40;;
3975;SDS011;2002;48.812;9.180;2023-05-17T14:30:15;2.43;;;1.90;;
3975;SDS011;2002;48.812;9.180;2023-05-17T14:32:41;2.60;;;2.10;;
3975;SDS011;2002;48.812;9.180;2023-05-17T14:35:07;4.57;;;2.73;;
3975;SDS011;2002;48.812;9.180;2023-05-17T14:37:33;3.70;;;2.60;;
3975;SDS011;2002;48.812;9.180;2023-05-17T14:39:59;2.50;;;2.30;;
3975;SDS011;2002;48.812;9.180;2023-05-17T14:42:25;4.93;;;3.87;;
3975;SDS011;2002;48.812;9.180;2023-05-17T14:44:51;4.50;;;2.60;;
3975;SDS011;2002;48.812;9.180;2023-05-17T14:47:17;4.47;;;2.47;;
3975;SDS011;2002;48.812;9.180;2023-05-17T14:49:45;3.70;;;2.63;;
3975;SDS011;2002;48.812;9.180;2023-05-17T14:52:10;2.60;;;2.40;;
3975;SDS011;2002;48.812;9.180;2023-05-17T14:54:37;10.53;;;2.53;;
3975;SDS011;2002;48.812;9.180;2023-05-17T14:57:03;2.47;;;2.27;;
3975;SDS011;2002;48.812;9.180;2023-05-17T14:59:29;2.90;;;2.20;;
3975;SDS011;2002;48.812;9.180;2023-05-17T15:01:55;3.83;;;2.70;;
3975;SDS011;2002;48.812;9.180;2023-05-17T15:04:21;5.30;;;2.83;;
3975;SDS011;2002;48.812;9.180;2023-05-17T15:06:46;3.70;;;2.67;;
3975;SDS011;2002;48.812;9.180;2023-05-17T15:09:12;5.20;;;2.57;;
3975;SDS011;2002;48.812;9.180;2023-05-17T15:11:38;4.47;;;3.00;;
3975;SDS011;2002;48.812;9.180;2023-05-17T15:14:04;3.37;;;2.70;;
3975;SDS011;2002;48.812;9.180;2023-05-17T15:16:30;4.30;;;2.70;;
3975;SDS011;2002;48.812;9.180;2023-05-17T15:18:57;3.70;;;2.10;;
3975;SDS011;2002;48.812;9.180;2023-05-17T15:21:23;4.17;;;2.90;;
3975;SDS011;2002;48.812;9.180;2023-05-17T15:23:48;4.83;;;3.30;;
3975;SDS011;2002;48.812;9.180;2023-05-17T15:26:15;7.50;;;2.50;;
3975;SDS011;2002;48.812;9.180;2023-05-17T15:28:41;10.07;;;4.00;;
3975;SDS011;2002;48.812;9.180;2023-05-17T15:31:07;11.33;;;3.00;;
3975;SDS011;2002;48.812;9.180;2023-05-17T15:33:38;14.50;;;3.70;;
3975;SDS011;2002;48.812;9.180;2023-05-17T15:36:04;9.83;;;3.50;;
3975;SDS011;2002;48.812;9.180;2023-05-17T15:38:31;13.27;;;4.57;;